createdAt,value
2022-08-19T00:02:39.817Z,5.90
2022-08-19T00:05:52.599Z,5.83
2022-08-19T00:08:56.486Z,6.28
2022-08-19T00:11:59.847Z,6.38
2022-08-19T00:15:02.278Z,6.35
2022-08-19T00:18:04.804Z,6.13
2022-08-19T00:21:10.509Z,5.90
2022-08-19T00:24:15.580Z,6.38
2022-08-19T00:27:26.073Z,6.38
2022-08-19T00:30:29.729Z,6.32
2022-08-19T00:33:33.546Z,6.72
2022-08-19T00:36:36.119Z,6.70
2022-08-19T00:39:38.713Z,6.45
2022-08-19T00:42:41.705Z,6.82
2022-08-19T00:45:44.641Z,6.32
2022-08-19T00:48:46.998Z,6.97
2022-08-19T00:51:52.494Z,7.13
2022-08-19T00:54:55.400Z,7.05
2022-08-19T00:58:10.925Z,7.40
2022-08-19T01:01:14.898Z,6.95
2022-08-19T01:04:17.474Z,7.00
2022-08-19T01:07:20.213Z,7.50
2022-08-19T01:10:27.350Z,7.78
2022-08-19T01:13:48.943Z,6.90
2022-08-19T01:16:55.476Z,7.55
2022-08-19T01:19:57.915Z,7.13
2022-08-19T01:23:00.331Z,7.77
2022-08-19T01:26:02.710Z,7.32
2022-08-19T01:29:05.297Z,7.63
2022-08-19T01:32:32.498Z,7.82
2022-08-19T01:35:36.650Z,8.30
2022-08-19T01:38:44.331Z,7.20
2022-08-19T01:41:47.790Z,7.70
2022-08-19T01:44:50.148Z,7.45
2022-08-19T01:48:01.921Z,8.10
2022-08-19T01:51:06.043Z,7.55
2022-08-19T01:54:10.079Z,8.23
2022-08-19T01:57:15.075Z,8.00
2022-08-19T02:00:20.107Z,7.55
2022-08-19T02:03:23.738Z,7.55
2022-08-19T02:06:27.064Z,7.75
2022-08-19T02:09:29.603Z,7.90
2022-08-19T02:12:32.259Z,7.63
2022-08-19T02:15:35.196Z,8.18
2022-08-19T02:18:37.944Z,8.00
2022-08-19T02:21:40.360Z,8.00
2022-08-19T02:24:43.232Z,7.77
2022-08-19T02:27:45.672Z,8.27
2022-08-19T02:30:48.839Z,8.55
2022-08-19T02:33:51.587Z,8.93
2022-08-19T02:36:53.988Z,8.77
2022-08-19T02:39:56.722Z,8.93
2022-08-19T02:42:59.139Z,8.90
2022-08-19T02:46:02.196Z,8.80
2022-08-19T02:49:06.965Z,9.10
2022-08-19T02:52:09.377Z,9.57
2022-08-19T02:55:12.150Z,8.53
2022-08-19T02:58:15.696Z,9.15
2022-08-19T03:01:30.447Z,8.57
2022-08-19T03:04:32.953Z,8.70
2022-08-19T03:07:35.378Z,8.48
2022-08-19T03:10:44.887Z,8.70
2022-08-19T03:13:47.700Z,8.50
2022-08-19T03:16:52.667Z,8.27
2022-08-19T03:19:55.096Z,8.23
2022-08-19T03:22:57.528Z,8.40
2022-08-19T03:26:16.095Z,9.03
2022-08-19T03:29:30.562Z,9.55
2022-08-19T03:32:33.560Z,9.38
2022-08-19T03:35:37.840Z,9.52
2022-08-19T03:38:47.314Z,9.65
2022-08-19T03:42:32.568Z,9.20
2022-08-19T03:45:13.531Z,9.43
2022-08-19T03:48:17.658Z,9.52
2022-08-19T03:51:31.900Z,9.48
2022-08-19T03:54:34.856Z,9.95
2022-08-19T03:57:37.283Z,9.13
2022-08-19T04:00:43.458Z,8.80
2022-08-19T04:03:49.137Z,8.73
2022-08-19T04:06:52.388Z,9.50
2022-08-19T04:09:55.151Z,9.30
2022-08-19T04:12:57.570Z,9.03
2022-08-19T04:15:59.955Z,8.98
2022-08-19T04:19:04.775Z,8.68
2022-08-19T04:22:08.117Z,9.07
2022-08-19T04:25:11.064Z,9.45
2022-08-19T04:28:14.111Z,9.10
2022-08-19T04:31:30.809Z,8.25
2022-08-19T04:34:33.215Z,9.13
2022-08-19T04:37:35.885Z,8.98
2022-08-19T04:41:00.681Z,8.70
2022-08-19T04:44:04.612Z,8.80
2022-08-19T04:47:11.427Z,8.50
2022-08-19T04:50:14.114Z,8.98
2022-08-19T04:53:16.573Z,8.38
2022-08-19T04:56:23.595Z,8.00
2022-08-19T04:59:25.973Z,7.43
2022-08-19T05:02:28.381Z,8.23
2022-08-19T05:05:32.571Z,7.65
2022-08-19T05:08:48.846Z,8.45
2022-08-19T05:11:54.456Z,7.15
2022-08-19T05:14:59.035Z,7.20
2022-08-19T05:18:19.792Z,7.00
2022-08-19T05:21:43.188Z,7.50
2022-08-19T05:25:09.385Z,6.97
2022-08-19T05:28:07.945Z,7.65
2022-08-19T05:31:10.572Z,7.70
2022-08-19T05:34:18.293Z,7.30
2022-08-19T05:37:23.228Z,7.38
2022-08-19T05:40:25.672Z,7.50
2022-08-19T05:43:29.320Z,7.93
2022-08-19T05:46:31.679Z,7.87
2022-08-19T05:49:37.806Z,8.48
2022-08-19T05:52:43.826Z,7.80
2022-08-19T05:55:52.481Z,8.15
2022-08-19T05:58:55.160Z,9.68
2022-08-19T06:01:57.997Z,9.27
2022-08-19T06:05:00.344Z,8.88
2022-08-19T06:08:02.877Z,9.25
2022-08-19T06:11:16.074Z,9.73
2022-08-19T06:14:27.870Z,9.27
2022-08-19T06:17:31.885Z,10.07
2022-08-19T06:20:55.057Z,9.65
2022-08-19T06:23:58.010Z,10.05
2022-08-19T06:27:02.007Z,10.00
2022-08-19T06:30:05.524Z,10.10
2022-08-19T06:33:08.092Z,10.07
2022-08-19T06:36:30.685Z,9.70
2022-08-19T06:39:36.287Z,10.05
2022-08-19T06:42:54.128Z,9.02
2022-08-19T06:45:57.727Z,9.60
2022-08-19T06:49:02.181Z,9.43
2022-08-19T06:52:06.241Z,9.30
2022-08-19T06:55:09.063Z,8.85
2022-08-19T06:58:11.697Z,9.38
2022-08-19T07:01:14.071Z,9.02
2022-08-19T07:04:23.271Z,9.00
2022-08-19T07:07:26.171Z,8.75
2022-08-19T07:10:28.564Z,8.73
2022-08-19T07:13:36.378Z,8.77
2022-08-19T07:16:42.545Z,8.70
2022-08-19T07:19:45.709Z,8.47
2022-08-19T07:22:50.286Z,8.80
2022-08-19T07:25:53.079Z,8.77
2022-08-19T07:28:56.461Z,8.45
2022-08-19T07:32:00.184Z,8.73
2022-08-19T07:35:04.460Z,8.57
2022-08-19T07:38:06.975Z,7.85
2022-08-19T07:41:14.900Z,7.75
2022-08-19T07:44:18.818Z,8.38
2022-08-19T07:47:48.139Z,8.32
2022-08-19T07:50:43.944Z,7.43
2022-08-19T07:53:47.600Z,7.80
2022-08-19T07:56:52.527Z,7.20
2022-08-19T07:59:55.419Z,7.47
2022-08-19T08:02:57.988Z,7.13
2022-08-19T08:06:18.885Z,7.20
2022-08-19T08:09:25.609Z,7.68
2022-08-19T08:12:42.206Z,7.07
2022-08-19T08:15:45.723Z,7.03
2022-08-19T08:18:50.808Z,6.88
2022-08-19T08:21:58.370Z,7.20
2022-08-19T08:25:27.508Z,6.78
2022-08-19T08:28:34.783Z,6.25
2022-08-19T08:31:37.830Z,6.30
2022-08-19T08:34:40.256Z,6.57
2022-08-19T08:37:42.617Z,6.57
2022-08-19T08:40:50.821Z,6.43
2022-08-19T08:43:54.101Z,6.28
2022-08-19T08:47:02.563Z,6.55
2022-08-19T08:50:12.216Z,6.30
2022-08-19T08:53:29.687Z,6.20
2022-08-19T08:56:34.916Z,6.15
2022-08-19T08:59:42.669Z,6.03
2022-08-19T09:02:50.382Z,6.20
2022-08-19T09:06:04.410Z,6.35
2022-08-19T09:09:19.702Z,6.50
2022-08-19T09:12:47.284Z,6.70
2022-08-19T09:15:59.228Z,5.40
2022-08-19T09:19:07.760Z,5.78
2022-08-19T09:22:10.699Z,5.70
2022-08-19T09:25:16.372Z,6.60
2022-08-19T09:28:22.084Z,6.70
2022-08-19T09:31:27.540Z,6.50
2022-08-19T09:34:30.401Z,6.40
2022-08-19T09:37:40.629Z,6.13
2022-08-19T09:40:43.054Z,6.60
2022-08-19T09:43:48.864Z,6.30
2022-08-19T09:46:51.930Z,6.40
2022-08-19T09:49:55.899Z,6.00
2022-08-19T09:52:59.059Z,6.13
2022-08-19T09:56:04.193Z,5.77
2022-08-19T09:59:07.217Z,6.20
2022-08-19T10:02:11.312Z,5.60
2022-08-19T10:05:32.234Z,5.57
2022-08-19T10:08:37.559Z,5.63
2022-08-19T10:11:54.332Z,5.00
2022-08-19T10:14:57.552Z,5.97
2022-08-19T10:18:00.759Z,5.35
2022-08-19T10:21:09.787Z,5.72
2022-08-19T10:24:14.280Z,5.60
2022-08-19T10:27:16.690Z,5.40
2022-08-19T10:30:20.156Z,5.55
2022-08-19T10:33:36.501Z,5.03
2022-08-19T10:36:55.519Z,4.95
2022-08-19T10:39:59.125Z,5.53
2022-08-19T10:43:01.497Z,5.67
2022-08-19T10:46:04.814Z,5.28
2022-08-19T10:49:12.719Z,5.20
2022-08-19T10:52:33.779Z,4.80
2022-08-19T10:55:54.901Z,4.55
2022-08-19T10:58:58.920Z,5.10
2022-08-19T11:02:03.092Z,4.97
2022-08-19T11:05:13.566Z,4.82
2022-08-19T11:08:23.012Z,5.47
2022-08-19T11:11:28.076Z,5.25
2022-08-19T11:14:32.174Z,5.23
2022-08-19T11:17:36.973Z,4.90
2022-08-19T11:20:40.427Z,5.72
2022-08-19T11:23:42.919Z,5.07
2022-08-19T11:26:46.102Z,5.75
2022-08-19T11:29:48.717Z,5.47
2022-08-19T11:32:51.100Z,5.10
2022-08-19T11:35:54.627Z,5.40
2022-08-19T11:38:57.046Z,5.18
2022-08-19T11:42:00.291Z,4.75
2022-08-19T11:45:04.101Z,5.00
2022-08-19T11:48:06.632Z,4.68
2022-08-19T11:51:18.280Z,5.43
2022-08-19T11:54:20.631Z,5.18
2022-08-19T11:57:22.996Z,5.32
2022-08-19T12:00:25.440Z,5.47
2022-08-19T12:03:28.578Z,5.40
2022-08-19T12:06:35.027Z,5.32
2022-08-19T12:09:42.658Z,5.22
2022-08-19T12:12:54.652Z,5.22
2022-08-19T12:16:01.750Z,5.50
2022-08-19T12:19:05.907Z,5.53
2022-08-19T12:22:08.665Z,5.43
2022-08-19T12:25:12.420Z,5.55
2022-08-19T12:28:14.835Z,5.88
2022-08-19T12:31:18.888Z,5.53
2022-08-19T12:34:21.496Z,5.25
2022-08-19T12:37:23.927Z,6.00
2022-08-19T12:40:26.761Z,5.72
2022-08-19T12:43:31.355Z,5.45
2022-08-19T12:46:33.806Z,5.93
2022-08-19T12:49:52.465Z,5.85
2022-08-19T12:52:58.348Z,6.60
2022-08-19T12:56:01.088Z,6.13
2022-08-19T12:59:05.330Z,6.20
2022-08-19T13:02:08.590Z,6.90
2022-08-19T13:05:14.402Z,6.13
2022-08-19T13:08:17.999Z,5.93
2022-08-19T13:11:24.333Z,5.97
2022-08-19T13:14:26.997Z,6.25
2022-08-19T13:17:29.580Z,5.90
2022-08-19T13:20:32.230Z,6.47
2022-08-19T13:23:36.528Z,7.43
2022-08-19T13:26:38.948Z,6.13
2022-08-19T13:30:03.009Z,6.57
2022-08-19T13:33:12.225Z,6.17
2022-08-19T13:36:14.600Z,6.65
2022-08-19T13:39:17.598Z,6.63
2022-08-19T13:42:20.264Z,6.47
2022-08-19T13:45:25.443Z,6.50
2022-08-19T13:48:28.196Z,6.00
2022-08-19T13:51:30.797Z,6.70
2022-08-19T13:54:33.510Z,6.40
2022-08-19T13:57:37.026Z,6.18
2022-08-19T14:00:44.370Z,6.05
2022-08-19T14:03:46.934Z,6.30
2022-08-19T14:06:49.895Z,7.05
2022-08-19T14:09:52.484Z,6.15
2022-08-19T14:12:56.682Z,5.75
2022-08-19T14:15:59.213Z,6.60
2022-08-19T14:19:02.335Z,6.27
2022-08-19T14:22:06.296Z,6.65
2022-08-19T14:25:11.299Z,6.45
2022-08-19T14:28:13.843Z,6.25
2022-08-19T14:31:19.951Z,6.20
2022-08-19T14:34:23.169Z,6.40
2022-08-19T14:37:26.301Z,5.93
2022-08-19T14:40:32.549Z,6.53
2022-08-19T14:43:35.358Z,5.78
2022-08-19T14:46:37.910Z,5.10
2022-08-19T14:49:42.237Z,5.00
2022-08-19T14:52:48.898Z,4.93
2022-08-19T14:55:51.504Z,4.90
2022-08-19T14:59:00.371Z,5.85
2022-08-19T15:02:20.464Z,5.88
2022-08-19T15:05:25.228Z,5.93
2022-08-19T15:08:29.852Z,6.18
2022-08-19T15:11:34.031Z,7.35
2022-08-19T15:14:38.691Z,7.47
2022-08-19T15:17:45.954Z,5.50
2022-08-19T15:20:50.300Z,5.40
2022-08-19T15:23:53.531Z,8.10
2022-08-19T15:26:56.750Z,5.80
2022-08-19T15:30:01.637Z,5.57
2022-08-19T15:33:05.368Z,4.38
2022-08-19T15:36:08.261Z,4.77
2022-08-19T15:39:13.326Z,5.47
2022-08-19T15:42:16.645Z,4.07
2022-08-19T15:45:34.764Z,6.03
2022-08-19T15:48:38.280Z,4.22
2022-08-19T15:51:43.356Z,5.00
2022-08-19T15:54:45.817Z,4.55
2022-08-19T15:58:06.687Z,4.65
2022-08-19T16:01:28.606Z,4.15
2022-08-19T16:04:49.499Z,3.83
2022-08-19T16:07:52.020Z,4.07
2022-08-19T16:10:55.233Z,4.53
2022-08-19T16:13:59.190Z,3.85
2022-08-19T16:17:02.027Z,3.60
2022-08-19T16:20:07.145Z,4.30
2022-08-19T16:23:10.210Z,4.30
2022-08-19T16:26:14.457Z,3.72
2022-08-19T16:29:33.601Z,3.88
2022-08-19T16:32:37.326Z,3.90
2022-08-19T16:35:39.753Z,3.42
2022-08-19T16:38:42.399Z,3.37
2022-08-19T16:41:45.990Z,3.53
2022-08-19T16:44:48.426Z,3.65
2022-08-19T16:47:50.926Z,3.97
2022-08-19T16:50:54.019Z,4.30
2022-08-19T16:53:56.427Z,4.40
2022-08-19T16:56:58.958Z,3.42
2022-08-19T17:00:08.794Z,3.85
2022-08-19T17:03:14.997Z,3.60
2022-08-19T17:06:21.487Z,3.70
2022-08-19T17:09:26.040Z,3.20
2022-08-19T17:12:31.725Z,3.33
2022-08-19T17:15:35.373Z,3.17
2022-08-19T17:18:38.698Z,3.75
2022-08-19T17:21:41.158Z,3.63
2022-08-19T17:24:43.591Z,3.67
2022-08-19T17:27:45.994Z,4.13
2022-08-19T17:30:48.752Z,3.08
2022-08-19T17:33:51.535Z,3.80
2022-08-19T17:36:56.728Z,3.15
2022-08-19T17:39:59.328Z,2.83
2022-08-19T17:43:02.752Z,3.35
2022-08-19T17:46:05.367Z,3.22
2022-08-19T17:49:08.187Z,2.78
2022-08-19T17:52:12.138Z,3.10
2022-08-19T17:55:14.950Z,3.30
2022-08-19T17:58:19.348Z,3.35
2022-08-19T18:01:24.672Z,3.13
2022-08-19T18:04:29.815Z,3.13
2022-08-19T18:07:34.276Z,3.42
2022-08-19T18:10:37.969Z,3.70
2022-08-19T18:13:40.768Z,2.85
2022-08-19T18:16:43.113Z,3.17
2022-08-19T18:19:47.405Z,3.80
2022-08-19T18:22:50.504Z,7.82
2022-08-19T18:25:52.896Z,7.33
2022-08-19T18:28:55.356Z,5.35
2022-08-19T18:31:57.842Z,4.65
2022-08-19T18:35:11.275Z,4.60
2022-08-19T18:38:35.459Z,3.55
2022-08-19T18:41:56.906Z,3.97
2022-08-19T18:45:18.144Z,3.20
2022-08-19T18:48:38.890Z,3.78
2022-08-19T18:51:41.556Z,3.42
2022-08-19T18:54:46.935Z,2.97
2022-08-19T18:57:51.138Z,3.23
2022-08-19T19:00:57.013Z,2.33
2022-08-19T19:04:03.368Z,3.47
2022-08-19T19:07:07.216Z,4.05
2022-08-19T19:10:10.022Z,4.15
2022-08-19T19:13:16.285Z,5.40
2022-08-19T19:16:24.263Z,4.18
2022-08-19T19:19:27.180Z,4.60
2022-08-19T19:22:29.737Z,6.50
2022-08-19T19:25:50.589Z,4.63
2022-08-19T19:28:54.907Z,4.67
2022-08-19T19:31:57.360Z,4.30
2022-08-19T19:34:59.762Z,4.97
2022-08-19T19:38:02.299Z,4.10
2022-08-19T19:41:05.097Z,3.72
2022-08-19T19:44:32.479Z,3.70
2022-08-19T19:47:32.479Z,3.95
2022-08-19T19:50:35.160Z,4.60
2022-08-19T19:53:37.712Z,4.00
2022-08-19T19:56:45.474Z,3.85
2022-08-19T19:59:51.372Z,3.87
2022-08-19T20:02:55.252Z,3.78
2022-08-19T20:05:59.477Z,3.58
2022-08-19T20:09:08.143Z,3.90
2022-08-19T20:12:10.647Z,4.60
2022-08-19T20:15:14.788Z,3.60
2022-08-19T20:18:17.512Z,3.67
2022-08-19T20:21:21.069Z,3.38
2022-08-19T20:24:27.128Z,3.63
2022-08-19T20:27:31.169Z,3.70
2022-08-19T20:30:44.411Z,3.53
2022-08-19T20:33:50.082Z,3.47
2022-08-19T20:36:52.482Z,3.78
2022-08-19T20:39:55.075Z,3.65
2022-08-19T20:42:57.752Z,3.35
2022-08-19T20:46:02.641Z,4.13
2022-08-19T20:49:05.860Z,3.20
2022-08-19T20:52:08.404Z,4.10
2022-08-19T20:55:12.388Z,3.70
2022-08-19T20:58:19.323Z,4.20
2022-08-19T21:01:22.386Z,4.20
2022-08-19T21:04:25.057Z,4.20
2022-08-19T21:07:39.117Z,3.63
2022-08-19T21:10:42.561Z,3.70
2022-08-19T21:13:45.362Z,3.83
2022-08-19T21:16:47.827Z,3.80
2022-08-19T21:19:50.514Z,3.53
2022-08-19T21:22:52.971Z,4.07
2022-08-19T21:25:57.513Z,3.63
2022-08-19T21:29:00.037Z,3.90
2022-08-19T21:32:04.101Z,4.10
2022-08-19T21:35:07.004Z,3.70
2022-08-19T21:38:09.803Z,4.07
2022-08-19T21:41:12.263Z,3.97
2022-08-19T21:44:14.719Z,3.47
2022-08-19T21:47:17.176Z,3.50
2022-08-19T21:50:19.959Z,3.95
2022-08-19T21:53:22.900Z,3.40
2022-08-19T21:56:25.537Z,3.70
2022-08-19T21:59:28.179Z,3.63
2022-08-19T22:02:31.091Z,3.47
2022-08-19T22:05:34.565Z,3.60
2022-08-19T22:08:37.377Z,4.03
2022-08-19T22:11:39.994Z,3.35
2022-08-19T22:14:43.766Z,3.85
2022-08-19T22:17:46.189Z,3.67
2022-08-19T22:20:48.636Z,3.20
2022-08-19T22:23:51.308Z,3.00
2022-08-19T22:26:54.035Z,3.25
2022-08-19T22:29:56.413Z,3.25
2022-08-19T22:33:01.114Z,3.40
2022-08-19T22:36:05.509Z,3.20
2022-08-19T22:39:10.014Z,3.35
2022-08-19T22:42:12.717Z,3.85
2022-08-19T22:45:16.966Z,3.60
2022-08-19T22:48:22.874Z,3.10
2022-08-19T22:51:44.144Z,3.95
2022-08-19T22:54:52.911Z,3.70
2022-08-19T22:57:56.207Z,3.70
2022-08-19T23:00:58.840Z,3.33
2022-08-19T23:04:03.728Z,3.10
2022-08-19T23:07:07.663Z,3.80
2022-08-19T23:10:11.009Z,3.10
2022-08-19T23:13:14.557Z,3.35
2022-08-19T23:16:16.935Z,3.55
2022-08-19T23:19:20.661Z,3.10
2022-08-19T23:22:25.091Z,3.13
2022-08-19T23:25:30.361Z,4.13
2022-08-19T23:28:51.142Z,3.38
2022-08-19T23:31:53.800Z,3.17
2022-08-19T23:34:56.387Z,3.30
2022-08-19T23:38:01.047Z,3.08
2022-08-19T23:41:05.970Z,3.13
2022-08-19T23:44:14.593Z,2.80
2022-08-19T23:47:17.633Z,3.70
2022-08-19T23:50:22.498Z,2.63
2022-08-19T23:53:25.828Z,3.10
2022-08-19T23:56:28.322Z,2.97
2022-08-19T23:59:30.756Z,3.17
